Flight Track Log - Related Links

Times and Time Zones

All times are in EDT time to prevent confusion due to time zone crossing. See the OPT429 flight status page for this flight to view local times or setup timezone preferences in your user account.

Time Position Orientation Groundspeed Altitude Reporting Facility
EDT Latitude Longitude Course Direction KTS MPH feet Rate Location/Type
Tue 02:00:17 PM 36.6919 -121.9608 320° Northwest 243 280 6,600  Level Oakland Center
Tue 02:01:18 PM 36.7425 -122.0203 317° Northwest 248 285 8,600 1,557 Climbing Oakland Center
Tue 02:02:28 PM 36.8167 -122.1000 319° Northwest 274 315 10,000 629 Climbing Northern Cal TRACON
Tue 02:03:22 PM 36.8703 -122.1589 319° Northwest 286 329 9,900 -52 Descending Oakland Center
Tue 02:04:23 PM 36.9425 -122.2122 329° Northwest 298 343 9,900  Level Oakland Center
Tue 02:05:25 PM 37.0128 -122.2678 328° Northwest 299 344 9,900  Level Oakland Center
Tue 02:06:27 PM 37.0842 -122.3247 328° Northwest 300 345 9,900  Level Oakland Center
Tue 02:07:28 PM 37.1553 -122.3797 328° Northwest 300 345 9,900  Level Oakland Center
Tue 02:08:30 PM 37.2261 -122.4378 327° Northwest 301 346 9,900 -484 Level Oakland Center
Tue 02:09:32 PM 37.2900 -122.4878 328° Northwest 282 325 8,900 -1,463 Descending Oakland Center
Tue 02:10:33 PM 37.3653 -122.5478 328° Northwest 272 313 6,900 -1,463 Descending Oakland Center
Tue 02:11:35 PM 37.4289 -122.5903 332° Northwest 266 306 5,900 -484 Descending Oakland Center
Tue 02:12:37 PM 37.4972 -122.6172 343° North 263 303 5,900  Level Oakland Center
Tue 02:13:38 PM 37.5653 -122.6461 341° North 262 302 5,900  Level Oakland Center
Tue 02:14:40 PM 37.6322 -122.6744 341° North 258 297 5,900  Level Oakland Center
Tue 02:15:42 PM 37.7019 -122.7039 342° North 258 297 5,900  Level Oakland Center
Tue 02:16:43 PM 37.7706 -122.7333 341° North 258 297 5,900  Level Oakland Center
Tue 02:17:45 PM 37.8394 -122.7631 341° North 258 297 5,900  Level Oakland Center
Tue 02:18:47 PM 37.9111 -122.7783 350° North 272 313 5,900  Level Oakland Center
Tue 02:19:48 PM 37.9842 -122.7778 360° North 264 304 5,900  Level Oakland Center
Tue 02:20:50 PM 38.0725 -122.7789 359° North 262 302 5,900 -290 Level Oakland Center
Tue 02:21:52 PM 38.1442 -122.7794 360° North 260 299 5,300 -683 Descending Oakland Center
Tue 02:22:53 PM 38.2158 -122.7803 359° North 259 298 4,500 -829 Descending Oakland Center
Tue 02:23:55 PM 38.2858 -122.7803 360° North 256 295 3,600 -919 Descending Oakland Center
Tue 02:24:57 PM 38.3519 -122.7803 360° North 249 287 2,600 -919 Descending Oakland Center
Tue 02:25:59 PM 38.4058 -122.7803 360° North 219 252 1,700 -780 Descending Oakland Center
Tue 02:27:00 PM 38.4564 -122.7822 358° North 198 228 1,000 -634 Descending Oakland Center
Tue 02:28:02 PM 38.4883 -122.7992 337° Northwest 151 174 400 -435 Descending Oakland Center
Tue 02:29:04 PM 38.5136 -122.8122 338° Northwest 102 117 100 -290 Descending Oakland Center

Login

Don't have an account? Register now (free) for customized features, flight alerts, and more!